»·PEaware :: N902SQ KRAL-KSAN

N902SQ :: KRAL-KSAN

FLIGHT INFORMATION

Flight Status: Arrived
Operator: Privately registered:
United States
More flights under this callsign
Pilot: Gabor H. (24209)
Aircraft: SOCATA TBM-900
(TBM9)
More flights by this aircraft type
Origin: KRAL Riverside Mun
United States
Destination: KSAN San Diego Intl-Lindbergh
United States
More flights between these airports :: More routes between these airports
Route: RAL2 PDZ V186 HAILE V66 MZB
File this flight plan on PilotEdge
Remarks:
Altitude:
(Current/Filed)
11,000ft
Speed:
(Current/Filed)
0kts
Departed: 10-Oct-23 07:25 AM
Arrived: 10-Oct-23 07:56 AM
Distance/Time
Traveled:
74nm/0:31
Distance/Time
To Go:
Arrived

Flight Plot

Page will automatically refresh every two minutes.

Flight plan parsing failed; only flown route is shown


Map Options




Map Legend


Flown Route
Filed Route
Departure Airport
Arrival Airport
Navaid (VOR, NDB)
Fix

Horizontal Profiles

Position Reports

Time Latitude Longitude Heading Altitude Ground
Speed
10-Oct-23 07:16 33.950155 -117.443063 114 818ft 0kts
10-Oct-23 07:17 33.950155 -117.443063 114 818ft 0kts
10-Oct-23 07:18 33.950155 -117.443063 114 818ft 0kts
10-Oct-23 07:19 33.950155 -117.443063 114 818ft 0kts
10-Oct-23 07:20 33.950133 -117.442973 82 818ft 5kts
10-Oct-23 07:21 33.950766 -117.439735 103 818ft 12kts
10-Oct-23 07:22 33.949919 -117.435481 101 818ft 3kts
10-Oct-23 07:23 33.949948 -117.435115 59 818ft 0kts
10-Oct-23 07:24 33.951241 -117.438439 282 818ft 74kts
10-Oct-23 07:25 33.953622 -117.479253 267 2666ft 136kts
10-Oct-23 07:26 33.930791 -117.514963 226 5276ft 135kts
10-Oct-23 07:27 33.900725 -117.529515 135 7773ft 147kts
10-Oct-23 07:28 33.873085 -117.492433 147 10185ft 156kts
10-Oct-23 07:29 33.830929 -117.456675 146 11040ft 230kts
10-Oct-23 07:30 33.773235 -117.408351 146 11004ft 266kts
10-Oct-23 07:31 33.712115 -117.357286 146 10999ft 269kts
10-Oct-23 07:32 33.650394 -117.305808 146 10999ft 271kts
10-Oct-23 07:33 33.588122 -117.253960 147 10999ft 273kts
10-Oct-23 07:34 33.525652 -117.202038 147 10996ft 273kts
10-Oct-23 07:35 33.460964 -117.157183 173 10992ft 267kts
10-Oct-23 07:36 33.387407 -117.142385 172 10993ft 268kts
10-Oct-23 07:37 33.316435 -117.115571 151 10556ft 281kts
10-Oct-23 07:38 33.248558 -117.067658 151 9062ft 281kts
10-Oct-23 07:39 33.182435 -117.020489 151 7559ft 276kts
10-Oct-23 07:40 33.118224 -116.975391 151 6988ft 256kts
10-Oct-23 07:41 33.057490 -116.932632 151 7007ft 252kts
10-Oct-23 07:42 32.995047 -116.896620 170 7019ft 249kts
10-Oct-23 07:43 32.927111 -116.881228 171 7016ft 249kts
10-Oct-23 07:44 32.858769 -116.865783 171 6915ft 250kts
10-Oct-23 07:45 32.790601 -116.860795 191 5387ft 242kts
10-Oct-23 07:46 32.730829 -116.872799 191 4130ft 208kts
10-Oct-23 07:47 32.686756 -116.903524 230 3995ft 199kts
10-Oct-23 07:48 32.677824 -116.961309 289 3744ft 190kts
10-Oct-23 07:49 32.690726 -117.013802 286 2873ft 134kts
10-Oct-23 07:50 32.701390 -117.057399 286 2581ft 145kts
10-Oct-23 07:51 32.712069 -117.101453 286 1916ft 98kts
10-Oct-23 07:52 32.719580 -117.131134 288 945ft 93kts
10-Oct-23 07:53 32.726635 -117.160460 288 377ft 84kts
10-Oct-23 07:54 32.732683 -117.186073 285 20ft 49kts
10-Oct-23 07:55 32.733519 -117.184897 106 19ft 19kts
10-Oct-23 07:56 32.733524 -117.179479 25 19ft 13kts
10-Oct-23 07:57 32.733511 -117.178652 16 19ft 0kts
10-Oct-23 07:58 32.733511 -117.178652 16 19ft 0kts
10-Oct-23 07:59 32.733511 -117.178652 16 19ft 0kts
10-Oct-23 08:00 32.733511 -117.178652 16 19ft 0kts
10-Oct-23 08:01 32.733511 -117.178652 16 19ft 0kts
10-Oct-23 08:02 32.733511 -117.178652 16 19ft 0kts
10-Oct-23 08:03 32.733511 -117.178652 16 19ft 0kts
10-Oct-23 08:04 32.733511 -117.178652 16 19ft 0kts
10-Oct-23 08:05 32.733511 -117.178652 16 19ft 0kts
10-Oct-23 08:06 32.733511 -117.178652 15 19ft 0kts
10-Oct-23 08:07 32.733511 -117.178652 15 19ft 0kts
10-Oct-23 08:08 32.733446 -117.178674 15 19ft 0kts

Navigation Log

Ident Type
Flight plan parsing failed, navigation log unavailable